createdAt,value
2023-01-26T00:02:14.706Z,77.06
2023-01-26T00:04:45.590Z,77.02
2023-01-26T00:07:21.878Z,77.20
2023-01-26T00:09:56.408Z,77.15
2023-01-26T00:12:34.783Z,77.25
2023-01-26T00:15:12.970Z,77.21
2023-01-26T00:17:54.450Z,77.20
2023-01-26T00:21:39.825Z,77.18
2023-01-26T00:24:39.993Z,77.30
2023-01-26T00:27:13.308Z,77.32
2023-01-26T00:29:51.675Z,77.37
2023-01-26T00:32:24.172Z,77.31
2023-01-26T00:34:55.008Z,77.34
2023-01-26T00:37:32.986Z,77.41
2023-01-26T00:40:09.815Z,77.39
2023-01-26T00:42:43.497Z,77.42
2023-01-26T00:45:34.803Z,77.37
2023-01-26T00:48:11.758Z,77.34
2023-01-26T00:50:47.458Z,77.42
2023-01-26T00:53:20.751Z,77.51
2023-01-26T00:56:07.533Z,77.45
2023-01-26T00:58:42.152Z,77.48
2023-01-26T01:01:23.516Z,77.59
2023-01-26T01:04:08.181Z,77.74
2023-01-26T01:06:40.477Z,77.61
2023-01-26T01:09:22.000Z,77.49
2023-01-26T01:12:01.586Z,77.48
2023-01-26T01:14:40.431Z,77.42
2023-01-26T01:17:15.638Z,77.46
2023-01-26T01:19:53.948Z,77.60
2023-01-26T01:22:55.107Z,77.58
2023-01-26T01:25:46.886Z,77.69
2023-01-26T01:28:20.729Z,77.68
2023-01-26T01:30:59.985Z,77.78
2023-01-26T01:33:36.971Z,77.78
2023-01-26T01:36:17.127Z,77.75
2023-01-26T01:38:55.252Z,77.84
2023-01-26T01:41:44.789Z,77.80
2023-01-26T01:44:38.798Z,77.84
2023-01-26T01:47:26.012Z,77.97
2023-01-26T01:50:05.523Z,77.87
2023-01-26T01:52:53.610Z,77.93
2023-01-26T01:55:30.648Z,77.99
2023-01-26T01:58:17.841Z,77.85
2023-01-26T02:00:50.855Z,77.90
2023-01-26T02:03:34.071Z,77.91
2023-01-26T02:06:46.456Z,78.00
2023-01-26T02:09:37.263Z,78.12
2023-01-26T02:12:11.629Z,78.09
2023-01-26T02:14:45.514Z,78.18
2023-01-26T02:17:22.468Z,78.03
2023-01-26T02:20:13.750Z,77.91
2023-01-26T02:23:01.436Z,77.92
2023-01-26T02:25:41.800Z,77.99
2023-01-26T02:28:12.926Z,78.04
2023-01-26T02:30:46.933Z,78.00
2023-01-26T02:33:24.262Z,77.94
2023-01-26T02:36:07.733Z,78.00
2023-01-26T02:39:20.342Z,78.00
2023-01-26T02:42:17.380Z,77.97
2023-01-26T02:44:54.054Z,78.04
2023-01-26T02:47:45.602Z,78.07
2023-01-26T02:50:20.269Z,78.01
2023-01-26T02:52:52.010Z,78.06
2023-01-26T02:55:30.802Z,78.10
2023-01-26T02:58:05.434Z,78.09
2023-01-26T03:00:47.598Z,78.06
2023-01-26T03:03:44.539Z,78.01
2023-01-26T03:06:29.716Z,78.03
2023-01-26T03:09:06.563Z,78.02
2023-01-26T03:11:44.350Z,78.08
2023-01-26T03:14:19.279Z,78.16
2023-01-26T03:16:52.777Z,78.18
2023-01-26T03:19:42.149Z,78.03
2023-01-26T03:22:31.526Z,78.11
2023-01-26T03:25:21.235Z,78.12
2023-01-26T03:27:54.911Z,78.25
2023-01-26T03:30:34.312Z,78.21
2023-01-26T03:33:09.823Z,78.24
2023-01-26T03:35:54.327Z,78.14
2023-01-26T03:38:42.590Z,78.36
2023-01-26T03:41:47.792Z,78.39
2023-01-26T03:44:44.361Z,78.51
2023-01-26T03:47:33.244Z,78.32
2023-01-26T03:50:41.663Z,78.28
2023-01-26T03:53:39.597Z,78.41
2023-01-26T03:56:23.755Z,78.48
2023-01-26T03:59:26.962Z,78.57
2023-01-26T04:02:29.953Z,78.57
2023-01-26T04:05:23.994Z,78.61
2023-01-26T04:08:23.115Z,78.54
2023-01-26T04:11:15.500Z,78.48
2023-01-26T04:14:07.721Z,78.41
2023-01-26T04:17:05.252Z,78.11
2023-01-26T04:19:57.117Z,78.05
2023-01-26T04:22:45.651Z,78.13
2023-01-26T04:25:22.317Z,78.12
2023-01-26T04:27:58.408Z,78.23
2023-01-26T04:30:42.042Z,78.17
2023-01-26T04:33:17.590Z,78.17
2023-01-26T04:35:58.868Z,78.14
2023-01-26T04:38:40.315Z,78.10
2023-01-26T04:41:15.840Z,78.11
2023-01-26T04:43:57.945Z,78.20
2023-01-26T04:46:37.749Z,78.06
2023-01-26T04:49:19.025Z,78.24
2023-01-26T04:51:59.946Z,78.18
2023-01-26T04:54:47.473Z,78.18
2023-01-26T04:57:21.464Z,78.11
2023-01-26T05:00:05.383Z,78.02
2023-01-26T05:02:44.273Z,78.05
2023-01-26T05:05:19.035Z,78.03
2023-01-26T05:07:54.220Z,77.98
2023-01-26T05:10:29.401Z,78.04
2023-01-26T05:13:26.635Z,77.89
2023-01-26T05:16:24.308Z,78.05
2023-01-26T05:19:52.521Z,78.11
2023-01-26T05:26:09.630Z,78.06
2023-01-26T05:32:19.500Z,77.97
2023-01-26T05:35:05.724Z,78.03
2023-01-26T05:37:51.214Z,78.09
2023-01-26T05:40:32.119Z,78.07
2023-01-26T05:43:34.073Z,78.20
2023-01-26T05:46:53.004Z,78.10
2023-01-26T05:49:52.280Z,77.88
2023-01-26T05:52:59.708Z,78.13
2023-01-26T05:55:52.991Z,78.08
2023-01-26T05:58:41.384Z,77.92
2023-01-26T06:01:21.807Z,77.69
2023-01-26T06:04:12.847Z,77.72
2023-01-26T06:07:13.817Z,77.68
2023-01-26T06:10:05.478Z,77.76
2023-01-26T06:13:24.872Z,77.66
2023-01-26T06:16:22.261Z,77.67
2023-01-26T06:19:08.566Z,77.72
2023-01-26T06:21:57.705Z,77.69
2023-01-26T06:24:47.458Z,77.78
2023-01-26T06:27:31.527Z,77.83
2023-01-26T06:30:22.862Z,77.74
2023-01-26T06:33:12.490Z,77.74
2023-01-26T06:36:05.250Z,77.67
2023-01-26T06:38:56.691Z,77.67
2023-01-26T06:41:34.545Z,77.57
2023-01-26T06:44:23.960Z,77.68
2023-01-26T06:47:11.575Z,77.58
2023-01-26T06:49:56.011Z,77.62
2023-01-26T06:52:52.301Z,77.62
2023-01-26T06:55:54.038Z,77.65
2023-01-26T06:58:40.876Z,77.52
2023-01-26T07:01:22.659Z,77.62
2023-01-26T07:04:10.056Z,77.83
2023-01-26T07:06:59.518Z,77.82
2023-01-26T07:09:32.490Z,77.79
2023-01-26T07:12:19.826Z,77.68
2023-01-26T07:14:58.686Z,77.60
2023-01-26T07:17:53.272Z,77.49
2023-01-26T07:20:49.498Z,77.58
2023-01-26T07:23:35.118Z,77.58
2023-01-26T07:26:35.179Z,77.60
2023-01-26T07:29:30.871Z,77.56
2023-01-26T07:32:06.965Z,77.47
2023-01-26T07:34:49.984Z,77.41
2023-01-26T07:37:20.615Z,77.44
2023-01-26T07:39:59.224Z,77.13
2023-01-26T07:42:42.489Z,77.03
2023-01-26T07:45:56.639Z,76.87
2023-01-26T07:48:33.668Z,76.79
2023-01-26T07:51:19.203Z,76.65
2023-01-26T07:54:12.777Z,76.43
2023-01-26T07:56:57.772Z,76.31
2023-01-26T07:59:40.495Z,75.80
2023-01-26T08:02:27.111Z,75.74
2023-01-26T08:05:12.124Z,75.57
2023-01-26T08:08:05.515Z,75.38
2023-01-26T08:10:46.491Z,75.04
2023-01-26T08:13:45.831Z,75.07
2023-01-26T08:16:22.033Z,75.04
2023-01-26T08:18:55.605Z,74.83
2023-01-26T08:21:37.976Z,74.45
2023-01-26T08:24:35.092Z,74.24
2023-01-26T08:27:16.133Z,74.25
2023-01-26T08:30:00.216Z,74.21
2023-01-26T08:32:31.096Z,74.21
2023-01-26T08:35:05.855Z,73.97
2023-01-26T08:37:45.982Z,73.81
2023-01-26T08:40:20.439Z,73.70
2023-01-26T08:43:04.803Z,73.70
2023-01-26T08:45:42.891Z,73.52
2023-01-26T08:48:24.347Z,73.26
2023-01-26T08:51:02.105Z,72.66
2023-01-26T08:53:37.708Z,72.46
2023-01-26T08:56:11.999Z,72.60
2023-01-26T08:58:56.663Z,72.17
2023-01-26T09:01:29.800Z,71.60
2023-01-26T09:04:07.669Z,71.06
2023-01-26T09:06:38.184Z,70.99
2023-01-26T09:09:13.424Z,71.22
2023-01-26T09:11:51.349Z,71.22
2023-01-26T09:14:28.943Z,71.41
2023-01-26T09:17:02.817Z,70.87
2023-01-26T09:19:43.078Z,70.36
2023-01-26T09:22:46.878Z,70.28
2023-01-26T09:25:30.227Z,70.34
2023-01-26T09:28:07.214Z,69.78
2023-01-26T09:30:39.428Z,69.55
2023-01-26T09:33:19.419Z,69.22
2023-01-26T09:35:53.797Z,69.29
2023-01-26T09:38:30.608Z,69.16
2023-01-26T09:41:41.655Z,68.80
2023-01-26T09:44:26.886Z,68.61
2023-01-26T09:47:12.798Z,68.52
2023-01-26T09:50:16.352Z,68.53
2023-01-26T09:53:07.360Z,68.31
2023-01-26T09:55:42.225Z,68.24
2023-01-26T09:58:36.424Z,68.50
2023-01-26T10:01:17.626Z,68.16
2023-01-26T10:04:03.154Z,67.64
2023-01-26T10:06:36.829Z,67.29
2023-01-26T10:09:49.619Z,67.05
2023-01-26T10:12:34.689Z,66.81
2023-01-26T10:15:27.834Z,66.63
2023-01-26T10:18:02.915Z,66.43
2023-01-26T10:20:49.804Z,66.31
2023-01-26T10:23:34.330Z,66.28
2023-01-26T10:26:22.887Z,66.37
2023-01-26T10:28:53.636Z,66.21
2023-01-26T10:31:35.676Z,65.91
2023-01-26T10:34:08.443Z,65.26
2023-01-26T10:36:37.939Z,64.90
2023-01-26T10:39:15.642Z,65.31
2023-01-26T10:42:03.679Z,65.22
2023-01-26T10:44:39.597Z,65.02
2023-01-26T10:47:23.823Z,64.95
2023-01-26T10:50:24.252Z,65.13
2023-01-26T10:53:32.623Z,65.01
2023-01-26T10:56:20.670Z,64.57
2023-01-26T10:59:02.173Z,64.61
2023-01-26T11:01:52.632Z,64.30
2023-01-26T11:04:23.537Z,64.10
2023-01-26T11:06:58.123Z,64.09
2023-01-26T11:09:31.962Z,63.93
2023-01-26T11:12:06.098Z,64.10
2023-01-26T11:14:38.131Z,64.14
2023-01-26T11:17:24.012Z,64.09
2023-01-26T11:20:42.200Z,63.95
2023-01-26T11:23:58.940Z,63.47
2023-01-26T11:27:22.953Z,63.51
2023-01-26T11:30:04.186Z,63.83
2023-01-26T11:33:00.430Z,63.54
2023-01-26T11:36:13.979Z,63.25
2023-01-26T11:39:21.147Z,63.36
2023-01-26T11:42:07.587Z,63.52
2023-01-26T11:45:22.229Z,63.21
2023-01-26T11:48:25.179Z,62.75
2023-01-26T11:51:05.657Z,62.48
2023-01-26T11:54:50.946Z,62.24
2023-01-26T11:57:37.933Z,62.36
2023-01-26T12:00:34.375Z,62.48
2023-01-26T12:03:13.310Z,62.03
2023-01-26T12:05:52.677Z,61.87
2023-01-26T12:08:44.102Z,62.09
2023-01-26T12:11:49.037Z,61.93
2023-01-26T12:14:41.034Z,61.60
2023-01-26T12:17:32.088Z,61.28
2023-01-26T12:20:36.359Z,61.08
2023-01-26T12:23:56.253Z,61.23
2023-01-26T12:26:39.273Z,61.19
2023-01-26T12:29:33.585Z,61.65
2023-01-26T12:32:20.533Z,61.92
2023-01-26T12:34:54.489Z,61.71
2023-01-26T12:37:38.290Z,61.76
2023-01-26T12:40:35.102Z,61.87
2023-01-26T12:43:31.872Z,61.82
2023-01-26T12:46:04.615Z,61.44
2023-01-26T12:48:47.207Z,61.51
2023-01-26T12:51:44.991Z,61.73
2023-01-26T12:54:40.661Z,61.70
2023-01-26T12:57:22.151Z,61.33
2023-01-26T12:59:52.611Z,61.35
2023-01-26T13:02:36.329Z,61.52
2023-01-26T13:05:34.019Z,61.63
2023-01-26T13:08:34.673Z,61.70
2023-01-26T13:11:09.361Z,61.80
2023-01-26T13:13:57.383Z,61.75
2023-01-26T13:16:47.270Z,61.75
2023-01-26T13:19:43.940Z,61.53
2023-01-26T13:22:22.738Z,61.44
2023-01-26T13:25:32.387Z,61.26
2023-01-26T13:28:04.298Z,61.43
2023-01-26T13:30:44.236Z,61.60
2023-01-26T13:33:25.944Z,61.58
2023-01-26T13:35:56.260Z,61.79
2023-01-26T13:38:40.544Z,61.82
2023-01-26T13:41:21.297Z,62.01
2023-01-26T13:44:05.014Z,62.15
2023-01-26T13:46:57.182Z,62.26
2023-01-26T13:49:49.706Z,62.33
2023-01-26T13:52:27.139Z,62.55
2023-01-26T13:54:58.355Z,62.44
2023-01-26T13:57:31.911Z,62.50
2023-01-26T14:00:01.846Z,62.54
2023-01-26T14:02:38.979Z,62.72
2023-01-26T14:05:24.814Z,62.65
2023-01-26T14:07:58.425Z,62.80
2023-01-26T14:10:28.840Z,63.02
2023-01-26T14:13:02.906Z,63.18
2023-01-26T14:15:38.591Z,63.16
2023-01-26T14:18:22.850Z,63.35
2023-01-26T14:21:01.011Z,63.31
2023-01-26T14:23:37.422Z,63.39
2023-01-26T14:26:22.078Z,63.72
2023-01-26T14:28:51.896Z,63.89
2023-01-26T14:31:26.734Z,63.86
2023-01-26T14:33:59.590Z,63.99
2023-01-26T14:36:42.069Z,64.07
2023-01-26T14:39:21.111Z,64.12
2023-01-26T14:41:50.719Z,64.16
2023-01-26T14:44:20.208Z,64.38
2023-01-26T14:47:06.634Z,64.49
2023-01-26T14:50:12.373Z,64.87
2023-01-26T14:52:46.932Z,65.21
2023-01-26T14:55:28.481Z,65.25
2023-01-26T14:58:01.598Z,65.38
2023-01-26T15:00:37.283Z,65.24
2023-01-26T15:03:58.292Z,65.36
2023-01-26T15:06:37.600Z,65.24
2023-01-26T15:09:29.467Z,65.17
2023-01-26T15:12:19.086Z,65.26
2023-01-26T15:14:55.966Z,65.21
2023-01-26T15:17:42.701Z,65.23
2023-01-26T15:20:15.291Z,65.36
2023-01-26T15:22:53.305Z,65.43
2023-01-26T15:25:32.025Z,65.30
2023-01-26T15:28:02.435Z,65.18
2023-01-26T15:30:40.197Z,65.31
2023-01-26T15:33:41.406Z,65.33
2023-01-26T15:36:51.212Z,65.21
2023-01-26T15:39:22.211Z,65.21
2023-01-26T15:42:14.264Z,65.30
2023-01-26T15:44:44.071Z,65.49
2023-01-26T15:47:15.547Z,65.59
2023-01-26T15:49:45.916Z,65.60
2023-01-26T15:52:26.085Z,65.57
2023-01-26T15:55:02.261Z,65.55
2023-01-26T15:57:32.233Z,65.42
2023-01-26T16:00:02.580Z,65.38
2023-01-26T16:02:36.737Z,65.36
2023-01-26T16:05:21.246Z,65.11
2023-01-26T16:08:20.685Z,65.29
2023-01-26T16:11:29.995Z,65.53
2023-01-26T16:14:15.623Z,65.73
2023-01-26T16:16:53.728Z,65.80
2023-01-26T16:19:36.856Z,65.82
2023-01-26T16:22:18.356Z,65.68
2023-01-26T16:24:54.544Z,65.83
2023-01-26T16:27:25.560Z,65.81
2023-01-26T16:29:55.611Z,65.76
2023-01-26T16:32:32.284Z,65.69
2023-01-26T16:35:21.279Z,65.72
2023-01-26T16:38:01.043Z,65.86
2023-01-26T16:40:34.373Z,65.63
2023-01-26T16:43:18.501Z,65.77
2023-01-26T16:45:52.237Z,65.94
2023-01-26T16:48:35.037Z,66.05
2023-01-26T16:51:26.059Z,66.20
2023-01-26T16:53:57.635Z,66.23
2023-01-26T16:56:35.743Z,66.32
2023-01-26T16:59:13.196Z,66.22
2023-01-26T17:01:43.457Z,66.11
2023-01-26T17:04:13.621Z,66.19
2023-01-26T17:06:48.036Z,66.10
2023-01-26T17:09:39.029Z,66.10
2023-01-26T17:12:14.080Z,66.38
2023-01-26T17:14:52.824Z,66.47
2023-01-26T17:17:34.158Z,66.48
2023-01-26T17:20:18.843Z,66.25
2023-01-26T17:22:50.787Z,66.24
2023-01-26T17:25:20.876Z,66.38
2023-01-26T17:27:56.470Z,66.34
2023-01-26T17:30:38.571Z,66.24
2023-01-26T17:33:10.371Z,66.58
2023-01-26T17:35:43.717Z,66.58
2023-01-26T17:38:25.612Z,66.48
2023-01-26T17:40:59.662Z,66.48
2023-01-26T17:43:44.356Z,66.52
2023-01-26T17:46:47.803Z,66.72
2023-01-26T17:49:40.501Z,66.78
2023-01-26T17:52:15.824Z,66.69
2023-01-26T17:54:53.762Z,66.83
2023-01-26T17:57:24.322Z,66.76
2023-01-26T17:59:55.201Z,66.73
2023-01-26T18:02:29.286Z,66.82
2023-01-26T18:05:18.855Z,66.76
2023-01-26T18:07:52.408Z,66.82
2023-01-26T18:10:35.899Z,66.97
2023-01-26T18:13:17.633Z,66.96
2023-01-26T18:16:14.748Z,66.81
2023-01-26T18:19:36.555Z,66.82
2023-01-26T18:22:22.456Z,66.55
2023-01-26T18:28:57.685Z,66.54
2023-01-26T18:31:43.565Z,66.43
2023-01-26T18:34:23.593Z,66.36
2023-01-26T18:37:02.070Z,66.42
2023-01-26T18:39:40.396Z,66.63
2023-01-26T18:42:10.505Z,66.65
2023-01-26T18:44:52.062Z,66.62
2023-01-26T18:47:31.778Z,66.54
2023-01-26T18:50:04.465Z,66.33
2023-01-26T18:52:35.054Z,66.23
2023-01-26T18:55:14.867Z,66.28
2023-01-26T18:57:55.542Z,66.12
2023-01-26T19:00:41.915Z,66.10
2023-01-26T19:03:35.868Z,66.05
2023-01-26T19:06:16.439Z,66.09
2023-01-26T19:09:04.786Z,65.99
2023-01-26T19:11:47.481Z,65.78
2023-01-26T19:14:19.994Z,65.89
2023-01-26T19:16:55.236Z,65.94
2023-01-26T19:19:27.042Z,65.94
2023-01-26T19:21:56.991Z,65.96
2023-01-26T19:24:37.295Z,65.86
2023-01-26T19:27:10.193Z,66.13
2023-01-26T19:30:14.311Z,66.15
2023-01-26T19:33:15.091Z,66.18
2023-01-26T19:35:50.419Z,65.96
2023-01-26T19:38:25.124Z,65.79
2023-01-26T19:40:54.776Z,65.79
2023-01-26T19:43:50.216Z,65.78
2023-01-26T19:46:47.244Z,65.79
2023-01-26T19:49:31.104Z,65.95
2023-01-26T19:52:32.822Z,66.01
2023-01-26T19:55:08.296Z,66.10
2023-01-26T19:57:45.218Z,66.18
2023-01-26T20:00:22.976Z,66.34
2023-01-26T20:03:02.969Z,66.34
2023-01-26T20:08:45.484Z,66.38
2023-01-26T20:11:23.601Z,66.33
2023-01-26T20:14:13.750Z,66.59
2023-01-26T20:16:47.715Z,66.65
2023-01-26T20:19:28.169Z,66.76
2023-01-26T20:22:02.601Z,66.78
2023-01-26T20:24:34.666Z,66.68
2023-01-26T20:27:13.573Z,66.58
2023-01-26T20:29:53.212Z,66.56
2023-01-26T20:32:27.793Z,66.50
2023-01-26T20:35:11.839Z,66.43
2023-01-26T20:37:44.152Z,66.24
2023-01-26T20:40:22.098Z,66.25
2023-01-26T20:42:57.278Z,66.24
2023-01-26T20:45:29.919Z,65.98
2023-01-26T20:48:01.256Z,65.87
2023-01-26T20:50:41.538Z,65.95
2023-01-26T20:53:22.591Z,66.08
2023-01-26T20:56:00.824Z,66.18
2023-01-26T20:58:30.816Z,66.29
2023-01-26T21:01:21.013Z,66.30
2023-01-26T21:03:53.973Z,66.44
2023-01-26T21:06:29.813Z,66.47
2023-01-26T21:09:01.213Z,66.67
2023-01-26T21:11:35.115Z,66.72
2023-01-26T21:14:12.185Z,66.60
2023-01-26T21:16:45.153Z,66.68
2023-01-26T21:19:18.240Z,66.72
2023-01-26T21:21:53.300Z,66.81
2023-01-26T21:24:59.183Z,66.79
2023-01-26T21:27:40.911Z,67.16
2023-01-26T21:30:31.758Z,67.14
2023-01-26T21:33:05.315Z,67.25
2023-01-26T21:35:38.611Z,67.38
2023-01-26T21:38:13.848Z,67.49
2023-01-26T21:40:51.573Z,67.63
2023-01-26T21:43:25.563Z,67.75
2023-01-26T21:46:02.481Z,67.83
2023-01-26T21:48:39.782Z,68.05
2023-01-26T21:51:30.838Z,67.96
2023-01-26T21:54:04.103Z,67.94
2023-01-26T21:56:43.403Z,67.96
2023-01-26T21:59:21.919Z,68.08
2023-01-26T22:01:57.677Z,68.01
2023-01-26T22:04:31.188Z,68.14
2023-01-26T22:07:01.283Z,68.08
2023-01-26T22:09:39.089Z,67.93
2023-01-26T22:12:30.981Z,67.89
2023-01-26T22:15:03.551Z,67.90
2023-01-26T22:17:38.611Z,67.85
2023-01-26T22:20:19.996Z,67.76
2023-01-26T22:23:00.160Z,67.91
2023-01-26T22:25:33.921Z,67.99
2023-01-26T22:28:09.333Z,67.98
2023-01-26T22:30:45.425Z,67.99
2023-01-26T22:33:18.513Z,67.86
2023-01-26T22:35:50.238Z,67.85
2023-01-26T22:38:24.069Z,67.82
2023-01-26T22:40:58.131Z,67.78
2023-01-26T22:43:29.008Z,67.66
2023-01-26T22:46:12.138Z,67.64
2023-01-26T22:48:42.533Z,67.62
2023-01-26T22:51:18.091Z,67.57
2023-01-26T22:53:57.092Z,67.63
2023-01-26T22:56:38.435Z,67.67
2023-01-26T22:59:18.735Z,67.66
2023-01-26T23:02:08.153Z,67.57
2023-01-26T23:04:43.601Z,67.59
2023-01-26T23:07:28.335Z,67.51
2023-01-26T23:10:12.084Z,67.51
2023-01-26T23:12:51.039Z,67.57
2023-01-26T23:15:37.911Z,67.59
2023-01-26T23:18:18.138Z,67.55
2023-01-26T23:20:54.499Z,67.66
2023-01-26T23:23:39.419Z,67.50
2023-01-26T23:26:13.219Z,67.51
2023-01-26T23:28:45.899Z,67.57
2023-01-26T23:31:19.382Z,67.67
2023-01-26T23:33:52.780Z,67.93
2023-01-26T23:36:28.136Z,67.93
2023-01-26T23:39:06.033Z,67.96
2023-01-26T23:41:41.047Z,67.89
2023-01-26T23:44:16.064Z,67.86
2023-01-26T23:46:51.003Z,67.94
2023-01-26T23:49:24.479Z,67.99
2023-01-26T23:52:02.430Z,67.87
2023-01-26T23:54:32.875Z,67.90
2023-01-26T23:57:09.127Z,68.02
2023-01-26T23:59:54.044Z,68.06
